sensor_id;sensor_type;location;lat;lon;timestamp;pressure;altitude;pressure_sealevel;temperature;humidity
10014;BME280;45684;48.358;10.746;2022-08-19T00:01:23;95690.88;;;18.91;nan
10014;BME280;45684;48.358;10.746;2022-08-19T00:03:57;95700.66;;;18.89;nan
10014;BME280;45684;48.358;10.746;2022-08-19T00:06:26;95699.06;;;18.88;nan
10014;BME280;45684;48.358;10.746;2022-08-19T00:08:55;95702.19;;;18.86;nan
10014;BME280;45684;48.358;10.746;2022-08-19T00:11:26;95700.25;;;18.86;nan
10014;BME280;45684;48.358;10.746;2022-08-19T00:13:54;95700.59;;;18.81;nan
10014;BME280;45684;48.358;10.746;2022-08-19T00:16:24;95701.34;;;18.78;nan
10014;BME280;45684;48.358;10.746;2022-08-19T00:18:53;95718.56;;;18.79;nan
10014;BME280;45684;48.358;10.746;2022-08-19T00:21:24;95709.97;;;18.77;nan
10014;BME280;45684;48.358;10.746;2022-08-19T00:23:53;95717.41;;;18.76;nan
10014;BME280;45684;48.358;10.746;2022-08-19T00:26:21;95711.81;;;18.66;nan
10014;BME280;45684;48.358;10.746;2022-08-19T00:28:49;95716.06;;;18.59;nan
10014;BME280;45684;48.358;10.746;2022-08-19T00:31:17;95717.25;;;18.62;nan
10014;BME280;45684;48.358;10.746;2022-08-19T00:33:50;95710.19;;;18.57;nan
10014;BME280;45684;48.358;10.746;2022-08-19T00:36:18;95709.75;;;18.55;nan
10014;BME280;45684;48.358;10.746;2022-08-19T00:38:47;95713.72;;;18.58;nan
10014;BME280;45684;48.358;10.746;2022-08-19T00:41:17;95705.09;;;18.59;nan
10014;BME280;45684;48.358;10.746;2022-08-19T00:43:57;95710.22;;;18.61;nan
10014;BME280;45684;48.358;10.746;2022-08-19T00:46:26;95703.97;;;18.64;nan
10014;BME280;45684;48.358;10.746;2022-08-19T00:48:54;95702.41;;;18.63;nan
10014;BME280;45684;48.358;10.746;2022-08-19T00:51:24;95698.47;;;18.64;nan
10014;BME280;45684;48.358;10.746;2022-08-19T00:53:55;95698.16;;;18.69;nan
10014;BME280;45684;48.358;10.746;2022-08-19T00:56:24;95697.38;;;18.69;nan
10014;BME280;45684;48.358;10.746;2022-08-19T00:58:54;95689.53;;;18.67;nan
10014;BME280;45684;48.358;10.746;2022-08-19T01:01:23;95694.19;;;18.63;nan
10014;BME280;45684;48.358;10.746;2022-08-19T01:03:51;95695.75;;;18.64;nan
10014;BME280;45684;48.358;10.746;2022-08-19T01:06:19;95686.34;;;18.65;nan
10014;BME280;45684;48.358;10.746;2022-08-19T01:08:47;95700.44;;;18.64;nan
10014;BME280;45684;48.358;10.746;2022-08-19T01:11:18;95695.34;;;18.62;nan
10014;BME280;45684;48.358;10.746;2022-08-19T01:13:46;95701.25;;;18.68;nan
10014;BME280;45684;48.358;10.746;2022-08-19T01:16:17;95692.25;;;18.67;nan
10014;BME280;45684;48.358;10.746;2022-08-19T01:18:46;95697.38;;;18.69;nan
10014;BME280;45684;48.358;10.746;2022-08-19T01:21:18;95708.38;;;18.72;nan
10014;BME280;45684;48.358;10.746;2022-08-19T01:23:50;95701.72;;;18.73;nan
10014;BME280;45684;48.358;10.746;2022-08-19T01:26:20;95698.59;;;18.71;nan
10014;BME280;45684;48.358;10.746;2022-08-19T01:28:52;95697.81;;;18.74;nan
10014;BME280;45684;48.358;10.746;2022-08-19T01:31:25;95695.44;;;18.73;nan
10014;BME280;45684;48.358;10.746;2022-08-19T01:33:55;95703.28;;;18.74;nan
10014;BME280;45684;48.358;10.746;2022-08-19T01:36:28;95700.53;;;18.74;nan
10014;BME280;45684;48.358;10.746;2022-08-19T01:38:59;95697.44;;;18.76;nan
10014;BME280;45684;48.358;10.746;2022-08-19T01:41:27;95700.56;;;18.78;nan
10014;BME280;45684;48.358;10.746;2022-08-19T01:43:55;95700.22;;;18.79;nan
10014;BME280;45684;48.358;10.746;2022-08-19T01:46:35;95703.75;;;18.80;nan
10014;BME280;45684;48.358;10.746;2022-08-19T01:49:05;95693.56;;;18.80;nan
10014;BME280;45684;48.358;10.746;2022-08-19T01:51:33;95690.03;;;18.80;nan
10014;BME280;45684;48.358;10.746;2022-08-19T01:54:06;95691.19;;;18.75;nan
10014;BME280;45684;48.358;10.746;2022-08-19T01:56:34;95695.41;;;18.69;nan
10014;BME280;45684;48.358;10.746;2022-08-19T01:59:05;95701.22;;;18.64;nan
10014;BME280;45684;48.358;10.746;2022-08-19T02:01:33;95721.56;;;18.63;nan
10014;BME280;45684;48.358;10.746;2022-08-19T02:04:02;95729.44;;;18.68;nan
10014;BME280;45684;48.358;10.746;2022-08-19T02:06:30;95728.72;;;18.71;nan
10014;BME280;45684;48.358;10.746;2022-08-19T02:08:58;95724.03;;;18.72;nan
10014;BME280;45684;48.358;10.746;2022-08-19T02:11:30;95714.59;;;18.69;nan
10014;BME280;45684;48.358;10.746;2022-08-19T02:14:00;95715.34;;;18.66;nan
10014;BME280;45684;48.358;10.746;2022-08-19T02:16:29;95714.56;;;18.66;nan
10014;BME280;45684;48.358;10.746;2022-08-19T02:18:57;95713.31;;;18.59;nan
10014;BME280;45684;48.358;10.746;2022-08-19T02:21:28;95710.56;;;18.56;nan
10014;BME280;45684;48.358;10.746;2022-08-19T02:23:57;95711.72;;;18.55;nan
10014;BME280;45684;48.358;10.746;2022-08-19T02:26:26;95707.84;;;18.56;nan
10014;BME280;45684;48.358;10.746;2022-08-19T02:28:55;95710.94;;;18.54;nan
10014;BME280;45684;48.358;10.746;2022-08-19T02:31:25;95696.44;;;18.54;nan
10014;BME280;45684;48.358;10.746;2022-08-19T02:33:54;95703.88;;;18.53;nan
10014;BME280;45684;48.358;10.746;2022-08-19T02:36:23;95707.03;;;18.55;nan
10014;BME280;45684;48.358;10.746;2022-08-19T02:38:52;95705.09;;;18.56;nan
10014;BME280;45684;48.358;10.746;2022-08-19T02:41:23;95701.53;;;18.55;nan
10014;BME280;45684;48.358;10.746;2022-08-19T02:43:54;95703.94;;;18.57;nan
10014;BME280;45684;48.358;10.746;2022-08-19T02:46:45;95700.75;;;18.55;nan
10014;BME280;45684;48.358;10.746;2022-08-19T02:49:13;95709.75;;;18.52;nan
10014;BME280;45684;48.358;10.746;2022-08-19T02:51:44;95710.56;;;18.56;nan
10014;BME280;45684;48.358;10.746;2022-08-19T02:54:13;95698.81;;;18.52;nan
10014;BME280;45684;48.358;10.746;2022-08-19T02:56:42;95701.53;;;18.52;nan
10014;BME280;45684;48.358;10.746;2022-08-19T02:59:12;95706.59;;;18.50;nan
10014;BME280;45684;48.358;10.746;2022-08-19T03:01:41;95716.75;;;18.49;nan
10014;BME280;45684;48.358;10.746;2022-08-19T03:04:11;95715.97;;;18.49;nan
10014;BME280;45684;48.358;10.746;2022-08-19T03:06:40;95710.50;;;18.49;nan
10014;BME280;45684;48.358;10.746;2022-08-19T03:09:08;95707.38;;;18.47;nan
10014;BME280;45684;48.358;10.746;2022-08-19T03:11:36;95708.94;;;18.48;nan
10014;BME280;45684;48.358;10.746;2022-08-19T03:14:06;95705.75;;;18.42;nan
10014;BME280;45684;48.358;10.746;2022-08-19T03:16:44;95699.91;;;18.44;nan
10014;BME280;45684;48.358;10.746;2022-08-19T03:19:13;95696.78;;;18.45;nan
10014;BME280;45684;48.358;10.746;2022-08-19T03:21:43;95683.88;;;18.46;nan
10014;BME280;45684;48.358;10.746;2022-08-19T03:24:13;95686.25;;;18.47;nan
10014;BME280;45684;48.358;10.746;2022-08-19T03:26:44;95691.34;;;18.49;nan
10014;BME280;45684;48.358;10.746;2022-08-19T03:29:12;95698.81;;;18.52;nan
10014;BME280;45684;48.358;10.746;2022-08-19T03:31:42;95705.84;;;18.53;nan
10014;BME280;45684;48.358;10.746;2022-08-19T03:34:20;95707.75;;;18.49;nan
10014;BME280;45684;48.358;10.746;2022-08-19T03:36:48;95707.38;;;18.50;nan
10014;BME280;45684;48.358;10.746;2022-08-19T03:39:16;95706.19;;;18.48;nan
10014;BME280;45684;48.358;10.746;2022-08-19T03:41:45;95705.41;;;18.47;nan
10014;BME280;45684;48.358;10.746;2022-08-19T03:44:15;95715.16;;;18.45;nan
10014;BME280;45684;48.358;10.746;2022-08-19T03:46:46;95718.31;;;18.47;nan
10014;BME280;45684;48.358;10.746;2022-08-19T03:49:15;95716.75;;;18.49;nan
10014;BME280;45684;48.358;10.746;2022-08-19T03:51:45;95715.56;;;18.47;nan
10014;BME280;45684;48.358;10.746;2022-08-19T03:54:15;95715.19;;;18.48;nan
10014;BME280;45684;48.358;10.746;2022-08-19T03:56:45;95718.31;;;18.47;nan
10014;BME280;45684;48.358;10.746;2022-08-19T03:59:15;95708.91;;;18.44;nan
10014;BME280;45684;48.358;10.746;2022-08-19T04:01:45;95707.31;;;18.43;nan
10014;BME280;45684;48.358;10.746;2022-08-19T04:04:13;95701.84;;;18.43;nan
10014;BME280;45684;48.358;10.746;2022-08-19T04:06:43;95706.94;;;18.45;nan
10014;BME280;45684;48.358;10.746;2022-08-19T04:09:13;95700.28;;;18.46;nan
10014;BME280;45684;48.358;10.746;2022-08-19T04:11:43;95701.06;;;18.46;nan
10014;BME280;45684;48.358;10.746;2022-08-19T04:14:14;95690.13;;;18.43;nan
10014;BME280;45684;48.358;10.746;2022-08-19T04:16:42;95686.22;;;18.44;nan
10014;BME280;45684;48.358;10.746;2022-08-19T04:19:13;95690.13;;;18.46;nan
10014;BME280;45684;48.358;10.746;2022-08-19T04:21:43;95684.28;;;18.48;nan
10014;BME280;45684;48.358;10.746;2022-08-19T04:24:12;95680.38;;;18.49;nan
10014;BME280;45684;48.358;10.746;2022-08-19T04:26:40;95679.22;;;18.50;nan
10014;BME280;45684;48.358;10.746;2022-08-19T04:29:11;95683.13;;;18.49;nan
10014;BME280;45684;48.358;10.746;2022-08-19T04:31:40;95683.13;;;18.49;nan
10014;BME280;45684;48.358;10.746;2022-08-19T04:34:09;95681.56;;;18.48;nan
10014;BME280;45684;48.358;10.746;2022-08-19T04:36:41;95679.59;;;18.48;nan
10014;BME280;45684;48.358;10.746;2022-08-19T04:39:14;95686.25;;;18.47;nan
10014;BME280;45684;48.358;10.746;2022-08-19T04:41:42;95696.41;;;18.47;nan
10014;BME280;45684;48.358;10.746;2022-08-19T04:44:27;95703.47;;;18.48;nan
10014;BME280;45684;48.358;10.746;2022-08-19T04:46:57;95712.47;;;18.48;nan
10014;BME280;45684;48.358;10.746;2022-08-19T04:49:25;95724.59;;;18.51;nan
10014;BME280;45684;48.358;10.746;2022-08-19T04:51:54;95727.28;;;18.44;nan
10014;BME280;45684;48.358;10.746;2022-08-19T04:54:24;95733.94;;;18.46;nan
10014;BME280;45684;48.358;10.746;2022-08-19T04:57:06;95743.28;;;18.42;nan
10014;BME280;45684;48.358;10.746;2022-08-19T04:59:35;95742.50;;;18.38;nan
10014;BME280;45684;48.358;10.746;2022-08-19T05:02:04;95746.78;;;18.39;nan
10014;BME280;45684;48.358;10.746;2022-08-19T05:04:32;95742.09;;;18.39;nan
10014;BME280;45684;48.358;10.746;2022-08-19T05:07:01;95759.69;;;18.38;nan
10014;BME280;45684;48.358;10.746;2022-08-19T05:09:29;95758.50;;;18.35;nan
10014;BME280;45684;48.358;10.746;2022-08-19T05:12:18;95763.56;;;18.37;nan
10014;BME280;45684;48.358;10.746;2022-08-19T05:14:46;95761.22;;;18.35;nan
10014;BME280;45684;48.358;10.746;2022-08-19T05:17:14;95760.03;;;18.33;nan
10014;BME280;45684;48.358;10.746;2022-08-19T05:19:53;95765.13;;;18.34;nan
10014;BME280;45684;48.358;10.746;2022-08-19T05:22:40;95757.31;;;18.36;nan
10014;BME280;45684;48.358;10.746;2022-08-19T05:25:10;95766.31;;;18.37;nan
10014;BME280;45684;48.358;10.746;2022-08-19T05:27:40;95754.22;;;18.42;nan
10014;BME280;45684;48.358;10.746;2022-08-19T05:30:10;95753.44;;;18.41;nan
10014;BME280;45684;48.358;10.746;2022-08-19T05:32:38;95748.00;;;18.45;nan
10014;BME280;45684;48.358;10.746;2022-08-19T05:35:07;95747.28;;;18.48;nan
10014;BME280;45684;48.358;10.746;2022-08-19T05:37:35;95747.28;;;18.48;nan
10014;BME280;45684;48.358;10.746;2022-08-19T05:40:06;95751.19;;;18.50;nan
10014;BME280;45684;48.358;10.746;2022-08-19T05:42:34;95757.50;;;18.54;nan
10014;BME280;45684;48.358;10.746;2022-08-19T05:45:03;95758.28;;;18.55;nan
10014;BME280;45684;48.358;10.746;2022-08-19T05:47:31;95756.31;;;18.52;nan
10014;BME280;45684;48.358;10.746;2022-08-19T05:49:59;95749.66;;;18.53;nan
10014;BME280;45684;48.358;10.746;2022-08-19T05:52:28;95739.53;;;18.57;nan
10014;BME280;45684;48.358;10.746;2022-08-19T05:54:56;95744.63;;;18.58;nan
10014;BME280;45684;48.358;10.746;2022-08-19T05:57:25;95738.78;;;18.64;nan
10014;BME280;45684;48.358;10.746;2022-08-19T05:59:55;95745.47;;;18.66;nan
10014;BME280;45684;48.358;10.746;2022-08-19T06:02:24;95739.66;;;18.71;nan
10014;BME280;45684;48.358;10.746;2022-08-19T06:04:52;95740.06;;;18.73;nan
10014;BME280;45684;48.358;10.746;2022-08-19T06:07:20;95739.31;;;18.76;nan
10014;BME280;45684;48.358;10.746;2022-08-19T06:09:48;95742.84;;;18.77;nan
10014;BME280;45684;48.358;10.746;2022-08-19T06:12:28;95736.19;;;18.78;nan
10014;BME280;45684;48.358;10.746;2022-08-19T06:15:00;95740.50;;;18.75;nan
10014;BME280;45684;48.358;10.746;2022-08-19T06:17:28;95745.97;;;18.75;nan
10014;BME280;45684;48.358;10.746;2022-08-19T06:19:57;95747.53;;;18.76;nan
10014;BME280;45684;48.358;10.746;2022-08-19T06:22:26;95745.97;;;18.75;nan
10014;BME280;45684;48.358;10.746;2022-08-19T06:24:55;95747.09;;;18.74;nan
10014;BME280;45684;48.358;10.746;2022-08-19T06:27:23;95752.59;;;18.74;nan
10014;BME280;45684;48.358;10.746;2022-08-19T06:29:52;95755.72;;;18.73;nan
10014;BME280;45684;48.358;10.746;2022-08-19T06:32:20;95760.03;;;18.74;nan
10014;BME280;45684;48.358;10.746;2022-08-19T06:34:48;95761.97;;;18.73;nan
10014;BME280;45684;48.358;10.746;2022-08-19T06:37:16;95770.19;;;18.73;nan
10014;BME280;45684;48.358;10.746;2022-08-19T06:39:44;95776.47;;;18.70;nan
10014;BME280;45684;48.358;10.746;2022-08-19T06:42:12;95781.53;;;18.72;nan
10014;BME280;45684;48.358;10.746;2022-08-19T06:44:46;95780.34;;;18.69;nan
10014;BME280;45684;48.358;10.746;2022-08-19T06:47:18;95777.16;;;18.67;nan
10014;BME280;45684;48.358;10.746;2022-08-19T06:49:48;95777.16;;;18.67;nan
10014;BME280;45684;48.358;10.746;2022-08-19T06:52:17;95783.44;;;18.68;nan
10014;BME280;45684;48.358;10.746;2022-08-19T06:54:45;95776.00;;;18.68;nan
10014;BME280;45684;48.358;10.746;2022-08-19T06:57:22;95785.81;;;18.69;nan
10014;BME280;45684;48.358;10.746;2022-08-19T06:59:50;95787.34;;;18.67;nan
10014;BME280;45684;48.358;10.746;2022-08-19T07:02:19;95786.16;;;18.68;nan
10014;BME280;45684;48.358;10.746;2022-08-19T07:04:47;95778.69;;;18.65;nan
10014;BME280;45684;48.358;10.746;2022-08-19T07:07:19;95777.91;;;18.64;nan
10014;BME280;45684;48.358;10.746;2022-08-19T07:09:49;95770.91;;;18.67;nan
10014;BME280;45684;48.358;10.746;2022-08-19T07:12:26;95772.47;;;18.68;nan
10014;BME280;45684;48.358;10.746;2022-08-19T07:14:55;95763.91;;;18.69;nan
10014;BME280;45684;48.358;10.746;2022-08-19T07:17:25;95766.28;;;18.71;nan
10014;BME280;45684;48.358;10.746;2022-08-19T07:19:53;95771.75;;;18.71;nan
10014;BME280;45684;48.358;10.746;2022-08-19T07:22:22;95772.53;;;18.71;nan
10014;BME280;45684;48.358;10.746;2022-08-19T07:24:50;95777.59;;;18.69;nan
10014;BME280;45684;48.358;10.746;2022-08-19T07:27:20;95772.53;;;18.71;nan
10014;BME280;45684;48.358;10.746;2022-08-19T07:29:52;95760.03;;;18.70;nan
10014;BME280;45684;48.358;10.746;2022-08-19T07:32:22;95764.66;;;18.66;nan
10014;BME280;45684;48.358;10.746;2022-08-19T07:34:51;95762.31;;;18.68;nan
10014;BME280;45684;48.358;10.746;2022-08-19T07:37:19;95760.03;;;18.70;nan
10014;BME280;45684;48.358;10.746;2022-08-19T07:39:48;95764.66;;;18.66;nan
10014;BME280;45684;48.358;10.746;2022-08-19T07:42:16;95755.66;;;18.66;nan
10014;BME280;45684;48.358;10.746;2022-08-19T07:44:44;95762.31;;;18.68;nan
10014;BME280;45684;48.358;10.746;2022-08-19T07:47:15;95772.91;;;18.70;nan
10014;BME280;45684;48.358;10.746;2022-08-19T07:50:09;95784.59;;;18.67;nan
10014;BME280;45684;48.358;10.746;2022-08-19T07:52:38;95768.53;;;18.61;nan
10014;BME280;45684;48.358;10.746;2022-08-19T07:55:09;95775.19;;;18.64;nan
10014;BME280;45684;48.358;10.746;2022-08-19T07:57:58;95777.13;;;18.64;nan
10014;BME280;45684;48.358;10.746;2022-08-19T08:00:26;95777.91;;;18.60;nan
10014;BME280;45684;48.358;10.746;2022-08-19T08:02:54;95777.91;;;18.60;nan
10014;BME280;45684;48.358;10.746;2022-08-19T08:05:24;95774.75;;;18.58;nan
10014;BME280;45684;48.358;10.746;2022-08-19T08:08:10;95786.47;;;18.59;nan
10014;BME280;45684;48.358;10.746;2022-08-19T08:10:55;95778.63;;;18.54;nan
10014;BME280;45684;48.358;10.746;2022-08-19T08:13:23;95773.22;;;18.61;nan
10014;BME280;45684;48.358;10.746;2022-08-19T08:15:51;95762.25;;;18.65;nan
10014;BME280;45684;48.358;10.746;2022-08-19T08:18:19;95763.03;;;18.61;nan
10014;BME280;45684;48.358;10.746;2022-08-19T08:20:48;95764.59;;;18.63;nan
10014;BME280;45684;48.358;10.746;2022-08-19T08:23:16;95768.53;;;18.65;nan
10014;BME280;45684;48.358;10.746;2022-08-19T08:25:53;95774.84;;;18.69;nan
10014;BME280;45684;48.358;10.746;2022-08-19T08:28:22;95760.75;;;18.67;nan
10014;BME280;45684;48.358;10.746;2022-08-19T08:30:50;95771.28;;;18.65;nan
10014;BME280;45684;48.358;10.746;2022-08-19T08:33:20;95766.28;;;18.71;nan
10014;BME280;45684;48.358;10.746;2022-08-19T08:35:57;95769.44;;;18.76;nan
10014;BME280;45684;48.358;10.746;2022-08-19T08:38:25;95769.84;;;18.75;nan
10014;BME280;45684;48.358;10.746;2022-08-19T08:40:58;95762.41;;;18.75;nan
10014;BME280;45684;48.358;10.746;2022-08-19T08:43:33;95771.78;;;18.74;nan
10014;BME280;45684;48.358;10.746;2022-08-19T08:46:05;95776.09;;;18.79;nan
10014;BME280;45684;48.358;10.746;2022-08-19T08:48:39;95783.63;;;18.85;nan
10014;BME280;45684;48.358;10.746;2022-08-19T08:51:15;95773.06;;;18.88;nan
10014;BME280;45684;48.358;10.746;2022-08-19T08:53:49;95779.75;;;18.90;nan
10014;BME280;45684;48.358;10.746;2022-08-19T08:56:21;95780.16;;;18.96;nan
10014;BME280;45684;48.358;10.746;2022-08-19T08:58:56;95785.25;;;18.94;nan
10014;BME280;45684;48.358;10.746;2022-08-19T09:01:25;95784.44;;;18.90;nan
10014;BME280;45684;48.358;10.746;2022-08-19T09:03:55;95791.88;;;18.89;nan
10014;BME280;45684;48.358;10.746;2022-08-19T09:06:37;95779.31;;;18.88;nan
10014;BME280;45684;48.358;10.746;2022-08-19T09:09:14;95790.19;;;18.77;nan
10014;BME280;45684;48.358;10.746;2022-08-19T09:12:04;95791.81;;;18.82;nan
10014;BME280;45684;48.358;10.746;2022-08-19T09:14:44;95799.31;;;18.89;nan
10014;BME280;45684;48.358;10.746;2022-08-19T09:17:18;95796.84;;;18.76;nan
10014;BME280;45684;48.358;10.746;2022-08-19T09:19:54;95792.59;;;18.82;nan
10014;BME280;45684;48.358;10.746;2022-08-19T09:22:24;95787.88;;;18.79;nan
10014;BME280;45684;48.358;10.746;2022-08-19T09:24:54;95793.72;;;18.78;nan
10014;BME280;45684;48.358;10.746;2022-08-19T09:27:23;95801.59;;;18.79;nan
10014;BME280;45684;48.358;10.746;2022-08-19T09:30:11;95799.59;;;18.76;nan
10014;BME280;45684;48.358;10.746;2022-08-19T09:32:41;95808.97;;;18.75;nan
10014;BME280;45684;48.358;10.746;2022-08-19T09:35:11;95799.59;;;18.76;nan
10014;BME280;45684;48.358;10.746;2022-08-19T09:37:40;95804.63;;;18.74;nan
10014;BME280;45684;48.358;10.746;2022-08-19T09:40:10;95802.59;;;18.68;nan
10014;BME280;45684;48.358;10.746;2022-08-19T09:42:38;95808.09;;;18.68;nan
10014;BME280;45684;48.358;10.746;2022-08-19T09:45:18;95807.31;;;18.67;nan
10014;BME280;45684;48.358;10.746;2022-08-19T09:47:49;95807.22;;;18.60;nan
10014;BME280;45684;48.358;10.746;2022-08-19T09:50:20;95810.78;;;18.60;nan
10014;BME280;45684;48.358;10.746;2022-08-19T09:52:50;95811.16;;;18.63;nan
10014;BME280;45684;48.358;10.746;2022-08-19T09:55:21;95816.66;;;18.63;nan
10014;BME280;45684;48.358;10.746;2022-08-19T09:57:49;95813.09;;;18.58;nan
10014;BME280;45684;48.358;10.746;2022-08-19T10:00:18;95817.78;;;18.58;nan
10014;BME280;45684;48.358;10.746;2022-08-19T10:02:46;95819.72;;;18.57;nan
10014;BME280;45684;48.358;10.746;2022-08-19T10:05:14;95818.19;;;18.60;nan
10014;BME280;45684;48.358;10.746;2022-08-19T10:08:02;95815.78;;;18.55;nan
10014;BME280;45684;48.358;10.746;2022-08-19T10:10:34;95819.28;;;18.52;nan
10014;BME280;45684;48.358;10.746;2022-08-19T10:13:02;95819.69;;;18.54;nan
10014;BME280;45684;48.358;10.746;2022-08-19T10:15:30;95817.75;;;18.54;nan
10014;BME280;45684;48.358;10.746;2022-08-19T10:17:58;95819.31;;;18.55;nan
10014;BME280;45684;48.358;10.746;2022-08-19T10:20:26;95822.44;;;18.54;nan
10014;BME280;45684;48.358;10.746;2022-08-19T10:22:55;95815.44;;;18.56;nan
10014;BME280;45684;48.358;10.746;2022-08-19T10:25:27;95822.09;;;18.59;nan
10014;BME280;45684;48.358;10.746;2022-08-19T10:27:55;95824.00;;;18.55;nan
10014;BME280;45684;48.358;10.746;2022-08-19T10:30:23;95822.84;;;18.56;nan
10014;BME280;45684;48.358;10.746;2022-08-19T10:32:50;95819.34;;;18.59;nan
10014;BME280;45684;48.358;10.746;2022-08-19T10:35:18;95821.69;;;18.57;nan
10014;BME280;45684;48.358;10.746;2022-08-19T10:37:47;95826.38;;;18.56;nan
10014;BME280;45684;48.358;10.746;2022-08-19T10:40:22;95820.91;;;18.56;nan
10014;BME280;45684;48.358;10.746;2022-08-19T10:42:51;95825.91;;;18.51;nan
10014;BME280;45684;48.358;10.746;2022-08-19T10:45:19;95819.25;;;18.48;nan
10014;BME280;45684;48.358;10.746;2022-08-19T10:47:48;95821.19;;;18.48;nan
10014;BME280;45684;48.358;10.746;2022-08-19T10:50:16;95824.34;;;18.50;nan
10014;BME280;45684;48.358;10.746;2022-08-19T10:53:03;95832.16;;;18.48;nan
10014;BME280;45684;48.358;10.746;2022-08-19T10:55:34;95825.91;;;18.47;nan
10014;BME280;45684;48.358;10.746;2022-08-19T10:58:21;95823.16;;;18.51;nan
10014;BME280;45684;48.358;10.746;2022-08-19T11:00:51;95831.00;;;18.49;nan
10014;BME280;45684;48.358;10.746;2022-08-19T11:03:20;95832.91;;;18.45;nan
10014;BME280;45684;48.358;10.746;2022-08-19T11:05:57;95850.50;;;18.44;nan
10014;BME280;45684;48.358;10.746;2022-08-19T11:08:25;95855.97;;;18.44;nan
10014;BME280;45684;48.358;10.746;2022-08-19T11:10:54;95868.53;;;18.48;nan
10014;BME280;45684;48.358;10.746;2022-08-19T11:13:27;95864.59;;;18.46;nan
10014;BME280;45684;48.358;10.746;2022-08-19T11:15:57;95867.66;;;18.41;nan
10014;BME280;45684;48.358;10.746;2022-08-19T11:18:28;95867.59;;;18.33;nan
10014;BME280;45684;48.358;10.746;2022-08-19T11:21:05;95874.88;;;18.22;nan
10014;BME280;45684;48.358;10.746;2022-08-19T11:23:33;95875.66;;;18.23;nan
10014;BME280;45684;48.358;10.746;2022-08-19T11:26:01;95872.84;;;18.16;nan
10014;BME280;45684;48.358;10.746;2022-08-19T11:28:30;95868.91;;;18.13;nan
10014;BME280;45684;48.358;10.746;2022-08-19T11:30:58;95857.16;;;18.13;nan
10014;BME280;45684;48.358;10.746;2022-08-19T11:33:26;95857.50;;;18.07;nan
10014;BME280;45684;48.358;10.746;2022-08-19T11:35:54;95854.75;;;18.07;nan
10014;BME280;45684;48.358;10.746;2022-08-19T11:38:22;95854.81;;;18.11;nan
10014;BME280;45684;48.358;10.746;2022-08-19T11:40:55;95849.34;;;18.11;nan
10014;BME280;45684;48.358;10.746;2022-08-19T11:43:23;95854.88;;;18.15;nan
10014;BME280;45684;48.358;10.746;2022-08-19T11:45:55;95849.41;;;18.18;nan
10014;BME280;45684;48.358;10.746;2022-08-19T11:48:23;95842.47;;;18.24;nan
10014;BME280;45684;48.358;10.746;2022-08-19T11:50:53;95848.66;;;18.21;nan
10014;BME280;45684;48.358;10.746;2022-08-19T11:53:22;95852.56;;;18.20;nan
10014;BME280;45684;48.358;10.746;2022-08-19T11:55:53;95843.19;;;18.21;nan
10014;BME280;45684;48.358;10.746;2022-08-19T11:58:22;95845.16;;;18.21;nan
10014;BME280;45684;48.358;10.746;2022-08-19T12:00:52;95851.84;;;18.23;nan
10014;BME280;45684;48.358;10.746;2022-08-19T12:03:21;95848.66;;;18.21;nan
10014;BME280;45684;48.358;10.746;2022-08-19T12:05:50;95833.81;;;18.19;nan
10014;BME280;45684;48.358;10.746;2022-08-19T12:08:18;95832.97;;;18.15;nan
10014;BME280;45684;48.358;10.746;2022-08-19T12:10:46;95836.84;;;18.14;nan
10014;BME280;45684;48.358;10.746;2022-08-19T12:13:14;95834.09;;;18.10;nan
10014;BME280;45684;48.358;10.746;2022-08-19T12:15:46;95841.47;;;18.06;nan
10014;BME280;45684;48.358;10.746;2022-08-19T12:18:14;95843.03;;;18.07;nan
10014;BME280;45684;48.358;10.746;2022-08-19T12:20:43;95843.75;;;18.04;nan
10014;BME280;45684;48.358;10.746;2022-08-19T12:23:13;95848.44;;;18.03;nan
10014;BME280;45684;48.358;10.746;2022-08-19T12:25:45;95848.84;;;18.02;nan
10014;BME280;45684;48.358;10.746;2022-08-19T12:28:16;95838.66;;;18.02;nan
10014;BME280;45684;48.358;10.746;2022-08-19T12:30:44;95851.97;;;18.04;nan
10014;BME280;45684;48.358;10.746;2022-08-19T12:33:12;95847.34;;;18.08;nan
10014;BME280;45684;48.358;10.746;2022-08-19T12:35:41;95850.06;;;18.08;nan
10014;BME280;45684;48.358;10.746;2022-08-19T12:38:14;95852.06;;;18.11;nan
10014;BME280;45684;48.358;10.746;2022-08-19T12:40:45;95855.19;;;18.09;nan
10014;BME280;45684;48.358;10.746;2022-08-19T12:43:13;95852.84;;;18.12;nan
10014;BME280;45684;48.358;10.746;2022-08-19T12:45:42;95848.50;;;18.07;nan
10014;BME280;45684;48.358;10.746;2022-08-19T12:48:10;95859.44;;;18.07;nan
10014;BME280;45684;48.358;10.746;2022-08-19T12:50:57;95861.84;;;18.12;nan
10014;BME280;45684;48.358;10.746;2022-08-19T12:53:27;95861.97;;;18.19;nan
10014;BME280;45684;48.358;10.746;2022-08-19T12:55:55;95865.88;;;18.22;nan
10014;BME280;45684;48.358;10.746;2022-08-19T12:58:24;95861.19;;;18.22;nan
10014;BME280;45684;48.358;10.746;2022-08-19T13:00:53;95859.28;;;18.26;nan
10014;BME280;45684;48.358;10.746;2022-08-19T13:03:21;95873.75;;;18.27;nan
10014;BME280;45684;48.358;10.746;2022-08-19T13:05:53;95867.16;;;18.31;nan
10014;BME280;45684;48.358;10.746;2022-08-19T13:08:22;95871.19;;;18.41;nan
10014;BME280;45684;48.358;10.746;2022-08-19T13:10:52;95880.28;;;18.49;nan
10014;BME280;45684;48.358;10.746;2022-08-19T13:13:20;95881.50;;;18.55;nan
10014;BME280;45684;48.358;10.746;2022-08-19T13:15:48;95875.34;;;18.65;nan
10014;BME280;45684;48.358;10.746;2022-08-19T13:18:16;95872.59;;;18.61;nan
10014;BME280;45684;48.358;10.746;2022-08-19T13:20:43;95875.06;;;18.70;nan
10014;BME280;45684;48.358;10.746;2022-08-19T13:23:18;95874.03;;;18.85;nan
10014;BME280;45684;48.358;10.746;2022-08-19T13:25:56;95876.09;;;18.96;nan
10014;BME280;45684;48.358;10.746;2022-08-19T13:28:25;95861.28;;;19.04;nan